Time;durP1;ratioP1;P1;durP2;ratioP2;P2;SDS_P1;SDS_P2;PMS_P1;PMS_P2;Temp;Humidity;BMP_temperature;BMP_pressure;BME280_temperature;BME280_humidity;BME280_pressure;Samples;Min_cycle;Max_cycle;Signal;HPM_P1;HPM_P2
2023/01/10 00:01:47;;;;;;;17.38;3.67;;;;;;;9.50;69.68;101337.94;5006371;28;20065;-67
2023/01/10 00:04:14;;;;;;;25.35;4.50;;;;;;;10.49;67.44;101348.03;4994830;28;20065;-66
2023/01/10 00:06:41;;;;;;;22.27;4.20;;;;;;;10.23;64.17;101350.28;4988047;28;20063;-67
2023/01/10 00:09:09;;;;;;;22.55;4.50;;;;;;;10.18;67.45;101352.31;4978025;28;20062;-67
2023/01/10 00:14:28;;;;;;;18.23;3.40;;;;;;;10.36;67.29;101336.91;4954639;28;20078;-67
2023/01/10 00:16:56;;;;;;;25.17;4.30;;;;;;;10.30;64.28;101347.19;4986879;28;20054;-67
2023/01/10 00:19:23;;;;;;;26.13;4.78;;;;;;;9.82;68.89;101349.16;4978315;28;20054;-67
2023/01/10 00:21:52;;;;;;;24.55;4.57;;;;;;;9.41;67.82;101361.69;4997031;28;20384;-68
2023/01/10 00:24:20;;;;;;;20.90;4.25;;;;;;;9.66;70.07;101357.88;4978522;28;20491;-67
2023/01/10 00:26:52;;;;;;;24.08;5.03;;;;;;;10.21;68.81;101354.47;4975103;28;20598;-66
2023/01/10 00:29:28;;;;;;;20.98;4.05;;;;;;;10.72;65.69;101362.84;4973965;28;20057;-67
2023/01/10 00:31:56;;;;;;;19.88;3.25;;;;;;;10.13;65.66;101377.13;4990356;28;20422;-68
2023/01/10 00:34:23;;;;;;;26.65;4.28;;;;;;;10.66;67.73;101375.88;4960682;28;20051;-67
2023/01/10 00:36:50;;;;;;;21.33;4.18;;;;;;;10.60;66.50;101382.56;4991206;28;20065;-67
2023/01/10 00:39:19;;;;;;;24.73;4.25;;;;;;;10.54;64.50;101388.44;4977398;28;20061;-67
2023/01/10 00:44:33;;;;;;;19.33;4.18;;;;;;;10.23;66.48;101394.34;4988341;28;20055;-67
2023/01/10 00:47:00;;;;;;;24.55;3.78;;;;;;;10.58;65.29;101395.00;5003690;28;20066;-67
2023/01/10 00:49:28;;;;;;;22.77;4.28;;;;;;;10.44;64.29;101394.09;4977106;28;20050;-69
2023/01/10 00:51:57;;;;;;;24.20;3.83;;;;;;;10.61;65.39;101389.72;5006436;28;20053;-67
2023/01/10 00:54:24;;;;;;;16.40;3.57;;;;;;;10.57;66.22;101394.19;4961361;28;20049;-68
2023/01/10 00:56:52;;;;;;;26.75;4.45;;;;;;;10.74;65.94;101399.19;4984446;28;20047;-67
2023/01/10 00:59:19;;;;;;;22.95;3.83;;;;;;;10.87;65.62;101403.94;4977427;28;20059;-67
2023/01/10 01:01:46;;;;;;;25.02;4.47;;;;;;;9.90;65.05;101406.28;4984465;28;20057;-66
2023/01/10 01:04:14;;;;;;;22.13;4.00;;;;;;;10.09;68.12;101400.88;4977538;28;20499;-67
2023/01/10 01:06:46;;;;;;;17.25;3.10;;;;;;;10.17;65.20;101397.47;4984466;28;20058;-68
2023/01/10 01:09:14;;;;;;;26.65;3.58;;;;;;;9.85;66.33;101417.34;4976783;28;20047;-67
2023/01/10 01:11:41;;;;;;;21.63;3.75;;;;;;;9.99;67.72;101406.44;4998922;28;20054;-68
2023/01/10 01:14:09;;;;;;;28.13;4.05;;;;;;;10.31;67.37;101411.31;4976625;28;20055;-68
2023/01/10 01:16:36;;;;;;;19.33;3.50;;;;;;;10.49;66.66;101410.53;4988345;28;20054;-67
2023/01/10 01:19:03;;;;;;;22.42;3.90;;;;;;;10.46;66.84;101416.66;4996444;28;20054;-67
2023/01/10 01:21:30;;;;;;;23.33;4.00;;;;;;;9.88;64.13;101419.53;4988357;28;20061;-69
2023/01/10 01:23:58;;;;;;;22.38;3.90;;;;;;;10.29;67.81;101435.59;4977458;28;20058;-68
2023/01/10 01:26:27;;;;;;;24.70;4.13;;;;;;;9.96;68.90;101434.56;4976475;28;20054;-67
2023/01/10 01:28:54;;;;;;;28.95;4.78;;;;;;;10.14;67.66;101439.34;4958667;28;20081;-69
2023/01/10 01:31:21;;;;;;;19.17;3.55;;;;;;;9.82;65.89;101450.13;4972070;28;20051;-62
2023/01/10 01:33:50;;;;;;;20.95;3.55;;;;;;;9.79;69.37;101448.78;4983629;28;20420;-60
2023/01/10 01:36:18;;;;;;;19.65;3.58;;;;;;;10.17;67.77;101444.25;5000399;28;20050;-61
2023/01/10 01:38:46;;;;;;;27.83;4.00;;;;;;;10.45;67.28;101445.28;4975881;28;20062;-62
2023/01/10 01:44:19;;;;;;;19.75;3.65;;;;;;;9.99;67.05;101453.22;4976821;28;20050;-62
2023/01/10 01:47:06;;;;;;;18.30;3.70;;;;;;;9.90;65.54;101463.25;4980352;28;20058;-61
2023/01/10 01:49:37;;;;;;;21.75;3.67;;;;;;;10.03;69.33;101457.88;4975317;28;20062;-61
2023/01/10 01:52:10;;;;;;;19.42;3.65;;;;;;;10.30;67.38;101446.31;4980833;28;20458;-59
2023/01/10 01:54:37;;;;;;;21.10;3.38;;;;;;;9.51;69.20;101435.00;4991609;28;20067;-59
2023/01/10 01:57:10;;;;;;;24.05;4.22;;;;;;;9.98;68.16;101427.66;4981434;28;20051;-60
2023/01/10 01:59:40;;;;;;;23.15;3.40;;;;;;;10.38;67.58;101433.81;4977170;28;20566;-61
2023/01/10 02:02:18;;;;;;;14.70;2.85;;;;;;;10.01;65.61;101446.34;4979529;28;20050;-61
2023/01/10 02:04:53;;;;;;;21.25;3.10;;;;;;;9.96;67.33;101454.66;4976077;28;20059;-61
2023/01/10 02:07:21;;;;;;;19.15;3.45;;;;;;;10.41;66.87;101467.09;4980311;28;20434;-62
2023/01/10 02:09:58;;;;;;;20.20;3.38;;;;;;;9.89;64.61;101461.59;4956554;28;20055;-60
2023/01/10 02:12:28;;;;;;;19.42;3.85;;;;;;;10.11;69.12;101459.22;4993459;28;20047;-61
2023/01/10 02:14:56;;;;;;;20.17;3.90;;;;;;;10.28;68.32;101470.56;4973241;28;20077;-61
2023/01/10 02:17:23;;;;;;;20.40;3.95;;;;;;;10.08;68.56;101470.75;4966637;28;20758;-59
2023/01/10 02:19:57;;;;;;;19.15;3.45;;;;;;;10.46;67.25;101478.03;4976126;28;20043;-64
2023/01/10 02:22:49;;;;;;;21.15;3.38;;;;;;;10.12;68.67;101483.69;4952309;28;20051;-60
2023/01/10 02:25:35;;;;;;;22.90;3.80;;;;;;;10.02;68.13;101480.19;4972297;28;20049;-60
2023/01/10 02:28:27;;;;;;;22.13;3.17;;;;;;;10.33;67.75;101491.72;5001480;28;20083;-61
2023/01/10 02:31:35;;;;;;;22.17;3.80;;;;;;;10.07;67.99;101488.38;4982565;28;20042;-61
2023/01/10 02:34:09;;;;;;;16.08;3.10;;;;;;;9.98;68.12;101484.63;4994984;28;20043;-61
2023/01/10 02:36:53;;;;;;;20.35;3.13;;;;;;;9.77;67.81;101481.25;5001587;28;20058;-62
2023/01/10 02:39:31;;;;;;;20.48;3.58;;;;;;;9.66;69.39;101487.16;4960618;28;20144;-60
2023/01/10 02:42:05;;;;;;;21.63;2.95;;;;;;;9.44;68.76;101487.59;4989346;28;20057;-62
2023/01/10 02:44:38;;;;;;;20.88;3.80;;;;;;;9.43;71.58;101487.88;4994314;28;20062;-58
2023/01/10 02:47:07;;;;;;;20.08;2.80;;;;;;;9.70;70.92;101490.94;4966071;28;20047;-59
2023/01/10 02:49:41;;;;;;;19.25;3.13;;;;;;;10.01;70.24;101492.28;4980075;28;20055;-61
2023/01/10 02:52:10;;;;;;;21.52;4.20;;;;;;;10.12;69.90;101500.22;4995300;28;20043;-61
2023/01/10 02:54:37;;;;;;;20.25;3.35;;;;;;;9.42;69.00;101505.47;5009773;28;20054;-61
2023/01/10 02:57:17;;;;;;;14.85;2.85;;;;;;;9.65;70.20;101516.56;4977235;28;20062;-60
2023/01/10 03:00:08;;;;;;;20.27;3.42;;;;;;;9.89;68.77;101522.13;4994650;28;20055;-62
2023/01/10 03:02:41;;;;;;;13.77;2.83;;;;;;;9.68;69.34;101516.00;5013547;28;20065;-60
2023/01/10 03:05:11;;;;;;;16.83;3.38;;;;;;;9.94;69.72;101511.91;4979643;28;20051;-62
2023/01/10 03:07:42;;;;;;;;;;;;;;;9.97;68.27;101500.31;4995327;28;20493;-61
2023/01/10 03:10:18;;;;;;;19.63;3.35;;;;;;;9.76;68.57;101503.56;4993946;28;20309;-57
2023/01/10 03:12:54;;;;;;;18.50;2.88;;;;;;;9.79;70.27;101502.97;4980815;28;20058;-61
2023/01/10 03:15:23;;;;;;;16.27;2.90;;;;;;;9.73;68.16;101506.88;4993981;28;20440;-60
2023/01/10 03:17:54;;;;;;;17.48;3.17;;;;;;;9.42;70.08;101488.97;4997756;28;20046;-59
2023/01/10 03:20:22;;;;;;;16.73;3.45;;;;;;;9.65;69.72;101488.25;4984025;28;20054;-61
2023/01/10 03:22:51;;;;;;;15.75;3.63;;;;;;;10.20;68.99;101495.97;4994338;28;20050;-59
2023/01/10 03:25:23;;;;;;;14.27;2.92;;;;;;;10.21;67.52;101503.13;4962545;28;20066;-61
2023/01/10 03:28:11;;;;;;;25.30;4.20;;;;;;;9.69;69.79;101500.31;4979024;28;20058;-60
2023/01/10 03:30:46;;;;;;;15.30;3.45;;;;;;;9.78;69.50;101509.59;4961730;28;20070;-60
2023/01/10 03:33:16;;;;;;;18.25;2.97;;;;;;;10.16;69.45;101516.97;4973852;28;20054;-60
2023/01/10 03:36:02;;;;;;;13.18;3.05;;;;;;;10.01;67.85;101526.16;4977919;28;20078;-62
2023/01/10 03:38:55;;;;;;;18.83;3.42;;;;;;;10.33;68.73;101517.31;4979235;28;20055;-61
2023/01/10 03:41:31;;;;;;;15.77;2.92;;;;;;;10.15;68.23;101516.13;5020128;28;20057;-60
2023/01/10 03:47:08;;;;;;;14.27;2.90;;;;;;;10.16;67.68;101522.47;5000293;28;20392;-59
2023/01/10 03:49:38;;;;;;;14.40;3.45;;;;;;;10.00;67.90;101520.94;4978516;28;20055;-59
2023/01/10 03:52:10;;;;;;;15.10;2.95;;;;;;;10.20;68.37;101524.34;5009253;28;20046;-60
2023/01/10 03:54:37;;;;;;;17.75;2.88;;;;;;;10.25;67.62;101536.41;4979220;28;20073;-60
2023/01/10 03:57:06;;;;;;;28.42;4.28;;;;;;;9.81;67.24;101533.78;4976519;28;20051;-59
2023/01/10 03:59:34;;;;;;;18.30;3.50;;;;;;;9.46;66.66;101534.88;4966542;28;20426;-60
2023/01/10 04:02:01;;;;;;;22.25;3.67;;;;;;;9.90;69.24;101538.34;4990526;28;20554;-60
2023/01/10 04:04:28;;;;;;;18.77;3.30;;;;;;;9.73;70.24;101543.47;4977459;28;20057;-58
2023/01/10 04:06:56;;;;;;;18.00;3.28;;;;;;;9.34;69.51;101541.84;5007197;28;20050;-59
2023/01/10 04:09:23;;;;;;;15.60;3.28;;;;;;;9.41;69.33;101542.34;4981718;28;20050;-61
2023/01/10 04:11:50;;;;;;;16.80;3.63;;;;;;;9.62;69.28;101539.16;4991323;28;20054;-61
2023/01/10 04:14:17;;;;;;;20.77;3.53;;;;;;;9.70;69.40;101545.97;4982540;28;20043;-59
2023/01/10 04:16:45;;;;;;;19.92;3.53;;;;;;;10.15;68.86;101543.66;4990404;28;20054;-59
2023/01/10 04:19:12;;;;;;;20.67;3.78;;;;;;;10.35;68.38;101539.06;4982944;28;20054;-60
2023/01/10 04:21:39;;;;;;;14.07;3.03;;;;;;;10.23;68.15;101535.88;4989035;28;20383;-58
2023/01/10 04:24:07;;;;;;;15.27;2.78;;;;;;;10.53;68.24;101544.63;4983812;28;20050;-59
2023/01/10 04:26:34;;;;;;;16.65;2.78;;;;;;;10.44;66.97;101540.06;5002462;28;20054;-62
2023/01/10 04:29:02;;;;;;;15.00;2.95;;;;;;;10.32;67.10;101537.69;4999014;28;20403;-60
2023/01/10 04:31:30;;;;;;;16.45;3.90;;;;;;;10.30;67.59;101545.44;5003253;28;20537;-61
2023/01/10 04:33:57;;;;;;;15.18;2.88;;;;;;;10.09;69.74;101536.53;4985118;28;20051;-59
2023/01/10 04:36:24;;;;;;;15.43;2.88;;;;;;;10.13;67.30;101545.06;4978446;28;20051;-59
2023/01/10 04:38:52;;;;;;;20.52;3.83;;;;;;;10.07;67.05;101540.69;4976369;28;20055;-60
2023/01/10 04:41:19;;;;;;;18.33;3.60;;;;;;;10.22;67.93;101546.06;4986680;28;20050;-59
2023/01/10 04:43:48;;;;;;;18.45;3.17;;;;;;;9.87;70.13;101552.69;4958738;28;20035;-58
2023/01/10 04:46:16;;;;;;;20.30;3.45;;;;;;;10.09;69.40;101552.25;4972351;28;20078;-61
2023/01/10 04:48:43;;;;;;;15.57;3.17;;;;;;;10.00;66.97;101553.97;4976589;28;20055;-62
2023/01/10 04:51:11;;;;;;;15.13;3.67;;;;;;;9.59;67.75;101569.97;4985377;28;20050;-60
2023/01/10 04:53:38;;;;;;;21.05;3.50;;;;;;;9.81;68.06;101562.13;4988898;28;20050;-60
2023/01/10 04:56:07;;;;;;;19.33;4.00;;;;;;;9.94;69.19;101568.88;4983967;28;20058;-61
2023/01/10 04:58:36;;;;;;;22.77;4.30;;;;;;;9.78;68.86;101559.13;4964400;28;20147;-62
2023/01/10 05:01:12;;;;;;;25.83;4.57;;;;;;;10.12;69.33;101555.25;4983934;28;20057;-67
2023/01/10 05:03:39;;;;;;;18.83;3.28;;;;;;;10.04;69.37;101549.53;4977275;28;20561;-62
2023/01/10 05:06:07;;;;;;;26.70;3.90;;;;;;;9.70;69.45;101554.22;4984369;28;20061;-63
2023/01/10 05:08:35;;;;;;;19.48;3.63;;;;;;;9.80;68.41;101545.88;5009802;28;20042;-60
2023/01/10 05:11:03;;;;;;;16.40;3.03;;;;;;;9.72;69.08;101547.34;4960990;28;20410;-63
2023/01/10 05:13:30;;;;;;;19.40;3.50;;;;;;;9.13;67.86;101545.81;4977461;28;20062;-68
2023/01/10 05:15:57;;;;;;;19.08;3.90;;;;;;;9.35;73.21;101548.97;4983187;28;20057;-69
2023/01/10 05:18:26;;;;;;;16.40;3.17;;;;;;;8.97;69.75;101545.91;4992625;28;20050;-67
2023/01/10 05:21:05;;;;;;;18.48;3.70;;;;;;;8.92;70.91;101553.34;4982894;28;20387;-67
2023/01/10 05:23:32;;;;;;;17.80;3.97;;;;;;;8.33;72.20;101549.72;4996275;28;20050;-68
2023/01/10 05:26:08;;;;;;;20.40;3.85;;;;;;;8.46;71.25;101547.22;4980114;28;20058;-68
2023/01/10 05:28:37;;;;;;;19.00;3.13;;;;;;;8.41;71.41;101552.72;4978165;28;20486;-66
2023/01/10 05:31:09;;;;;;;16.65;3.28;;;;;;;8.14;71.80;101552.22;4997823;28;20053;-67
2023/01/10 05:33:36;;;;;;;17.75;3.70;;;;;;;8.03;73.09;101556.06;4992539;28;20043;-67
2023/01/10 05:36:05;;;;;;;19.33;3.75;;;;;;;8.72;72.74;101554.25;4976277;28;20046;-67
2023/01/10 05:38:32;;;;;;;20.85;4.00;;;;;;;8.11;72.41;101555.47;4960416;28;20059;-67
2023/01/10 05:41:00;;;;;;;19.98;3.45;;;;;;;8.00;73.95;101556.63;4977645;28;20042;-67
2023/01/10 05:43:28;;;;;;;12.00;3.13;;;;;;;8.17;76.00;101554.38;4977878;28;20099;-68
2023/01/10 05:45:55;;;;;;;17.23;3.80;;;;;;;7.80;74.46;101554.69;4980893;28;20494;-67
2023/01/10 05:48:23;;;;;;;20.45;3.50;;;;;;;7.88;74.51;101553.31;4977344;28;20124;-67
2023/01/10 05:50:51;;;;;;;19.27;4.63;;;;;;;7.73;74.58;101556.06;4995594;28;20398;-67
2023/01/10 05:53:19;;;;;;;18.73;3.17;;;;;;;7.86;74.77;101550.03;4977718;28;20080;-66
2023/01/10 05:55:57;;;;;;;23.83;4.05;;;;;;;8.67;77.82;101546.03;4981829;28;20137;-67
2023/01/10 05:58:24;;;;;;;21.70;3.83;;;;;;;7.84;74.11;101553.06;5001342;28;20050;-67
2023/01/10 06:00:52;;;;;;;19.10;2.90;;;;;;;7.76;75.13;101547.28;4979977;28;20042;-67
2023/01/10 06:03:19;;;;;;;20.45;4.10;;;;;;;7.91;77.94;101545.34;4991760;28;20051;-72
2023/01/10 06:05:47;;;;;;;21.23;3.13;;;;;;;7.98;75.28;101543.16;4979575;28;20042;-69
2023/01/10 06:08:15;;;;;;;21.52;3.35;;;;;;;7.62;75.39;101544.25;4991356;28;20055;-67
2023/01/10 06:10:43;;;;;;;16.40;3.47;;;;;;;7.65;75.74;101551.94;4980064;28;20046;-69
2023/01/10 06:13:11;;;;;;;21.67;3.92;;;;;;;7.98;75.48;101550.56;4996354;28;20062;-67
2023/01/10 06:15:39;;;;;;;20.33;3.75;;;;;;;8.38;75.00;101550.53;4992714;28;20042;-67
2023/01/10 06:18:07;;;;;;;26.55;4.15;;;;;;;8.28;73.98;101553.28;4988215;28;20047;-67
2023/01/10 06:20:39;;;;;;;16.45;3.42;;;;;;;8.07;74.52;101553.59;4980439;28;20046;-68
2023/01/10 06:23:06;;;;;;;17.23;3.28;;;;;;;7.77;74.97;101543.44;5012362;28;20049;-69
2023/01/10 06:25:39;;;;;;;21.30;3.63;;;;;;;8.38;74.82;101542.31;4975324;28;20055;-67
2023/01/10 06:28:07;;;;;;;21.00;3.45;;;;;;;8.99;75.88;101540.97;4957069;28;20062;-67
2023/01/10 06:30:35;;;;;;;15.82;3.85;;;;;;;8.84;72.47;101546.50;4956801;28;20046;-68
2023/01/10 06:33:07;;;;;;;21.55;4.10;;;;;;;8.45;73.35;101553.81;4957731;28;20733;-67
2023/01/10 06:35:35;;;;;;;18.08;3.35;;;;;;;8.04;73.65;101549.44;4956683;28;20211;-67
2023/01/10 06:38:02;;;;;;;20.27;3.80;;;;;;;7.94;74.48;101553.03;4956976;29;20051;-68
2023/01/10 06:40:30;;;;;;;15.20;4.22;;;;;;;7.80;75.46;101556.59;4958246;28;20054;-68
2023/01/10 06:42:58;;;;;;;20.55;3.13;;;;;;;7.56;75.64;101558.25;4942938;28;20055;-68
2023/01/10 06:45:25;;;;;;;17.38;3.45;;;;;;;7.73;76.40;101569.78;4956300;28;20299;-68
2023/01/10 06:47:52;;;;;;;23.40;3.97;;;;;;;7.65;76.17;101564.84;4956967;28;20054;-67
2023/01/10 06:50:20;;;;;;;32.22;10.10;;;;;;;8.22;77.83;101559.88;4956731;28;20062;-67
2023/01/10 06:53:05;;;;;;;28.70;10.15;;;;;;;8.03;75.81;101564.28;4954663;28;20056;-68
2023/01/10 06:55:33;;;;;;;20.60;6.32;;;;;;;7.89;75.63;101568.69;4956265;28;20043;-67
2023/01/10 06:58:02;;;;;;;22.88;5.00;;;;;;;8.21;77.70;101565.63;4957015;28;20056;-68
2023/01/10 07:00:30;;;;;;;18.02;4.07;;;;;;;8.09;78.02;101562.38;4956900;28;20059;-67
2023/01/10 07:02:59;;;;;;;21.85;3.92;;;;;;;8.11;77.13;101560.16;4971927;28;20055;-67
2023/01/10 07:05:27;;;;;;;22.73;4.45;;;;;;;8.55;76.65;101558.44;4956206;28;20047;-69
2023/01/10 07:07:56;;;;;;;16.33;3.63;;;;;;;8.41;76.54;101565.59;4956291;28;20047;-67
2023/01/10 07:10:24;;;;;;;19.55;3.58;;;;;;;8.14;76.21;101562.34;4982273;28;20047;-68
2023/01/10 07:12:54;;;;;;;16.25;3.72;;;;;;;8.12;77.54;101554.41;4959949;28;20513;-67
2023/01/10 07:15:21;;;;;;;;;;;;;;;7.92;76.96;101549.75;4960823;28;20051;-67
2023/01/10 07:17:48;;;;;;;20.95;4.25;;;;;;;7.69;77.45;101558.53;4960323;29;20320;-67
2023/01/10 07:20:16;;;;;;;19.90;3.63;;;;;;;7.50;77.78;101556.59;4960479;28;20059;-66
2023/01/10 07:22:43;;;;;;;16.67;4.63;;;;;;;7.52;77.62;101555.22;4959538;29;20062;-68
2023/01/10 07:25:11;;;;;;;16.60;4.35;;;;;;;8.08;79.50;101561.53;4957239;28;20043;-68
2023/01/10 07:27:42;;;;;;;16.88;4.03;;;;;;;8.40;77.94;101553.00;4943309;28;20428;-68
2023/01/10 07:30:10;;;;;;;17.33;4.10;;;;;;;8.36;76.56;101555.47;4941495;29;20072;-66
2023/01/10 07:32:44;;;;;;;19.10;4.00;;;;;;;8.39;76.56;101551.34;4975822;28;20525;-66
2023/01/10 07:35:12;;;;;;;23.20;4.95;;;;;;;8.50;77.25;101547.47;4962058;28;20039;-67
2023/01/10 07:37:39;;;;;;;29.83;9.73;;;;;;;8.25;77.95;101544.78;4942198;29;20055;-67
2023/01/10 07:40:07;;;;;;;21.63;5.60;;;;;;;8.73;77.76;101541.34;4958577;28;20531;-56
2023/01/10 07:42:34;;;;;;;23.23;4.47;;;;;;;8.55;76.15;101530.97;4958919;28;20067;-68
2023/01/10 07:45:02;;;;;;;17.38;4.15;;;;;;;8.29;75.26;101535.72;4941125;29;20051;-67
2023/01/10 07:47:29;;;;;;;16.20;3.80;;;;;;;9.03;76.83;101541.22;4943769;29;20052;-60
2023/01/10 07:49:57;;;;;;;23.60;3.75;;;;;;;8.91;74.35;101532.47;4939882;29;20066;-60
2023/01/10 07:52:24;;;;;;;36.75;10.60;;;;;;;8.74;74.98;101538.31;4949533;29;20047;-60
2023/01/10 07:54:52;;;;;;;37.58;15.68;;;;;;;8.80;75.61;101539.13;4904489;29;20060;-56
2023/01/10 07:57:19;;;;;;;21.67;6.30;;;;;;;9.36;74.82;101537.72;4953257;29;20051;-57
2023/01/10 07:59:46;;;;;;;21.98;6.05;;;;;;;9.22;75.29;101542.19;4957908;28;20135;-57
2023/01/10 08:02:14;;;;;;;28.67;5.15;;;;;;;9.47;74.48;101538.44;4953373;28;20051;-68
2023/01/10 08:04:41;;;;;;;32.65;4.22;;;;;;;9.17;73.99;101538.66;4959178;28;20078;-69
2023/01/10 08:07:08;;;;;;;23.30;4.70;;;;;;;9.21;74.52;101531.47;4958690;28;20055;-60
2023/01/10 08:09:36;;;;;;;19.10;4.80;;;;;;;9.63;74.22;101540.78;4959083;28;20051;-69
2023/01/10 08:12:03;;;;;;;16.27;3.88;;;;;;;9.64;74.69;101544.38;4959034;28;20051;-59
2023/01/10 08:14:31;;;;;;;21.42;4.75;;;;;;;9.46;72.46;101543.13;4974169;28;20522;-60
2023/01/10 08:16:59;;;;;;;24.98;3.97;;;;;;;9.58;73.19;101545.50;4956222;28;20055;-60
2023/01/10 08:19:27;;;;;;;16.25;4.18;;;;;;;9.63;73.01;101542.72;4939462;29;20058;-65
2023/01/10 08:21:55;;;;;;;17.85;4.38;;;;;;;9.33;72.96;101540.22;4983593;28;20059;-61
2023/01/10 08:24:22;;;;;;;17.05;4.40;;;;;;;9.26;72.23;101543.25;4973448;28;20047;-68
2023/01/10 08:26:49;;;;;;;18.55;3.88;;;;;;;8.98;73.04;101549.47;4972666;28;20120;-61
2023/01/10 08:29:17;;;;;;;17.38;3.60;;;;;;;8.79;74.16;101551.19;4958399;28;20051;-62
2023/01/10 08:31:44;;;;;;;24.27;5.03;;;;;;;9.01;73.56;101544.22;4973089;28;20615;-60
2023/01/10 08:34:12;;;;;;;22.77;4.15;;;;;;;9.28;72.89;101540.22;4954491;29;20051;-69
2023/01/10 08:36:39;;;;;;;20.88;4.35;;;;;;;9.63;73.72;101539.97;4949819;28;20059;-68
2023/01/10 08:39:07;;;;;;;26.75;4.28;;;;;;;9.30;74.82;101527.00;4940864;28;20055;-67
2023/01/10 08:41:34;;;;;;;20.15;4.32;;;;;;;9.18;74.25;101526.53;4956808;28;20055;-67
2023/01/10 08:44:02;;;;;;;18.77;4.32;;;;;;;9.07;75.20;101532.09;4958818;28;20051;-68
2023/01/10 08:46:29;;;;;;;26.40;3.67;;;;;;;9.22;73.68;101525.72;4950790;28;20043;-68
2023/01/10 08:48:56;;;;;;;26.60;4.93;;;;;;;9.28;73.21;101531.97;4939331;29;20048;-67
2023/01/10 08:51:24;;;;;;;24.08;4.85;;;;;;;9.47;73.46;101539.25;4935171;29;20066;-68
2023/01/10 08:53:51;;;;;;;22.38;4.82;;;;;;;9.32;73.73;101538.53;4937946;29;20066;-68
2023/01/10 08:56:19;;;;;;;19.08;4.38;;;;;;;9.22;72.99;101542.19;4946794;29;20043;-68
2023/01/10 08:58:46;;;;;;;28.02;4.68;;;;;;;9.08;75.66;101543.94;4958535;29;20411;-69
2023/01/10 09:01:13;;;;;;;19.42;4.43;;;;;;;9.06;75.88;101546.13;4958222;28;20396;-68
2023/01/10 09:03:41;;;;;;;20.45;4.78;;;;;;;8.93;76.40;101547.56;4958748;28;20058;-67
2023/01/10 09:06:08;;;;;;;25.42;4.05;;;;;;;9.26;76.56;101545.19;4958216;29;20058;-69
2023/01/10 09:08:36;;;;;;;21.02;4.82;;;;;;;9.10;75.50;101539.78;4964135;28;20055;-67
2023/01/10 09:11:04;;;;;;;23.70;5.20;;;;;;;9.23;76.28;101532.84;4959690;28;20054;-68
2023/01/10 09:13:32;;;;;;;21.42;4.43;;;;;;;9.01;77.07;101526.94;4958501;28;20510;-67
2023/01/10 09:16:00;;;;;;;23.35;5.30;;;;;;;9.32;77.89;101544.03;4954773;28;20050;-69
2023/01/10 09:18:27;;;;;;;21.85;5.22;;;;;;;9.29;78.05;101537.22;4956268;28;20061;-68
2023/01/10 09:20:55;;;;;;;32.42;8.00;;;;;;;9.33;76.31;101546.50;4957756;29;20054;-67
2023/01/10 09:23:22;;;;;;;25.63;5.82;;;;;;;9.03;76.08;101543.97;4958176;28;20050;-68
2023/01/10 09:25:52;;;;;;;24.00;4.63;;;;;;;9.00;77.80;101528.00;4974769;28;20065;-68
2023/01/10 09:28:21;;;;;;;21.30;4.32;;;;;;;9.01;76.82;101527.72;4978625;28;20421;-68
2023/01/10 09:30:48;;;;;;;17.50;4.80;;;;;;;9.33;79.66;101529.22;4995131;28;20050;-68
2023/01/10 09:33:16;;;;;;;30.38;4.72;;;;;;;8.88;77.46;101524.78;5011769;28;20065;-68
2023/01/10 09:35:43;;;;;;;20.85;4.57;;;;;;;9.69;78.87;101525.88;4995842;28;20042;-68
2023/01/10 09:38:16;;;;;;;23.83;4.57;;;;;;;9.12;77.58;101527.69;4995537;28;20061;-69
2023/01/10 09:40:59;;;;;;;18.00;4.13;;;;;;;9.46;78.74;101517.56;4959172;28;20050;-68
2023/01/10 09:43:45;;;;;;;24.38;5.47;;;;;;;8.92;78.54;101512.13;4992240;28;20150;-69
2023/01/10 09:46:25;;;;;;;21.13;5.20;;;;;;;9.09;79.68;101512.59;4978629;28;20494;-69
2023/01/10 09:49:11;;;;;;;22.85;5.75;;;;;;;9.13;80.24;101507.34;4976631;28;20054;-69
2023/01/10 09:51:50;;;;;;;24.55;4.55;;;;;;;8.62;80.94;101504.88;4988085;28;20065;-69
2023/01/10 09:54:35;;;;;;;17.92;4.75;;;;;;;9.02;81.07;101506.56;4979189;28;20239;-68
2023/01/10 09:57:03;;;;;;;21.98;5.07;;;;;;;8.88;81.84;101509.13;4994458;28;20546;-68
2023/01/10 09:59:41;;;;;;;22.67;5.05;;;;;;;8.87;81.46;101507.47;5019958;28;20051;-68
2023/01/10 10:02:38;;;;;;;24.58;5.22;;;;;;;9.39;80.59;101508.81;4975426;28;20054;-67
2023/01/10 10:05:22;;;;;;;22.23;5.57;;;;;;;9.44;79.27;101503.28;4996643;28;20054;-68
2023/01/10 10:07:58;;;;;;;28.17;6.10;;;;;;;9.59;80.63;101505.91;4994516;28;20514;-69
2023/01/10 10:10:33;;;;;;;25.38;4.93;;;;;;;9.96;78.13;101506.94;4995269;28;20058;-67
2023/01/10 10:13:21;;;;;;;23.60;5.13;;;;;;;9.99;78.68;101509.09;4995909;28;20058;-68
2023/01/10 10:16:01;;;;;;;21.58;5.00;;;;;;;9.50;78.07;101516.69;4992687;28;20046;-68
2023/01/10 10:18:41;;;;;;;24.00;5.20;;;;;;;9.60;80.69;101510.28;4977351;28;20050;-67
2023/01/10 10:21:29;;;;;;;18.10;4.45;;;;;;;9.98;79.18;101504.72;4999772;28;20046;-69
2023/01/10 10:24:22;;;;;;;20.75;4.90;;;;;;;9.71;78.80;101504.41;4989879;28;20074;-67
2023/01/10 10:27:09;;;;;;;26.17;6.15;;;;;;;9.42;79.06;101505.47;4977542;28;20056;-68
2023/01/10 10:30:04;;;;;;;21.90;5.80;;;;;;;9.36;80.66;101495.63;4979537;28;20050;-68
2023/01/10 10:32:50;;;;;;;16.33;4.68;;;;;;;9.46;79.87;101476.31;5011672;28;20486;-69
2023/01/10 10:35:24;;;;;;;23.35;4.90;;;;;;;9.19;81.75;101478.72;4957844;28;20055;-68
2023/01/10 10:37:53;;;;;;;21.35;5.10;;;;;;;9.17;80.46;101467.19;5010809;28;20062;-69
2023/01/10 10:40:24;;;;;;;24.87;5.47;;;;;;;8.75;82.31;101451.25;4994648;28;20069;-68
2023/01/10 10:42:55;;;;;;;28.15;5.75;;;;;;;8.69;83.13;101452.38;4979097;28;20298;-68
2023/01/10 10:45:38;;;;;;;19.98;5.88;;;;;;;9.21;83.22;101443.50;4978712;28;20054;-69
2023/01/10 10:48:17;;;;;;;36.60;6.45;;;;;;;9.16;83.21;101429.81;4980515;28;20077;-67
2023/01/10 10:50:54;;;;;;;24.85;5.60;;;;;;;9.04;81.93;101441.16;4983928;28;20055;-68
2023/01/10 10:53:22;;;;;;;24.17;5.75;;;;;;;9.10;82.70;101440.84;4982880;28;20054;-68
2023/01/10 10:55:50;;;;;;;19.27;5.05;;;;;;;9.52;84.41;101425.66;4998035;28;20058;-68
2023/01/10 10:58:18;;;;;;;22.92;6.32;;;;;;;9.67;81.40;101431.00;5013661;28;20062;-67
2023/01/10 11:00:48;;;;;;;18.50;4.85;;;;;;;9.42;81.13;101425.75;4981332;28;20054;-68
2023/01/10 11:03:26;;;;;;;24.15;7.40;;;;;;;9.32;83.48;101425.84;4996863;28;20058;-70
2023/01/10 11:05:54;;;;;;;24.33;5.82;;;;;;;8.94;84.31;101422.81;4999005;28;20046;-68
2023/01/10 11:08:26;;;;;;;26.25;5.55;;;;;;;9.24;82.71;101409.97;5000490;28;20525;-68
2023/01/10 11:10:58;;;;;;;25.77;5.63;;;;;;;9.05;83.45;101399.66;4952064;28;20050;-68
2023/01/10 11:13:32;;;;;;;19.95;5.70;;;;;;;9.46;82.84;101402.06;4998107;28;20050;-68
2023/01/10 11:16:04;;;;;;;20.80;5.00;;;;;;;9.34;82.74;101390.63;4999037;28;20051;-67
2023/01/10 11:18:32;;;;;;;26.63;5.88;;;;;;;9.50;83.08;101381.13;4997567;28;20061;-71
2023/01/10 11:21:12;;;;;;;25.58;5.85;;;;;;;9.49;82.17;101374.81;4998881;28;20054;-67
2023/01/10 11:23:39;;;;;;;20.88;5.15;;;;;;;9.77;82.38;101376.72;5014074;28;20079;-69
2023/01/10 11:26:24;;;;;;;17.20;4.22;;;;;;;9.73;82.97;101366.56;4986397;28;20049;-68
2023/01/10 11:29:02;;;;;;;27.73;5.10;;;;;;;9.46;82.25;101363.56;4997589;28;20058;-68
2023/01/10 11:31:31;;;;;;;18.55;5.30;;;;;;;9.55;82.88;101350.84;4997061;28;20180;-68
2023/01/10 11:33:59;;;;;;;55.03;20.15;;;;;;;9.74;82.56;101354.47;4997465;28;20058;-69
2023/01/10 11:36:27;;;;;;;144.27;56.13;;;;;;;9.63;82.46;101341.94;4997077;28;20516;-68
2023/01/10 11:39:03;;;;;;;32.95;12.75;;;;;;;9.97;82.93;101331.63;5013556;28;20058;-69
2023/01/10 11:41:33;;;;;;;22.35;7.45;;;;;;;10.21;80.86;101321.44;4990007;28;20050;-68
2023/01/10 11:44:23;;;;;;;21.10;6.30;;;;;;;10.48;80.35;101318.03;4979901;28;20057;-68
2023/01/10 11:46:56;;;;;;;19.13;5.20;;;;;;;10.28;80.09;101321.88;4989289;28;20074;-68
2023/01/10 11:49:40;;;;;;;12.57;4.63;;;;;;;10.15;80.54;101317.09;4992800;28;20051;-68
2023/01/10 11:52:33;;;;;;;15.95;4.47;;;;;;;9.88;82.53;101319.63;4994539;28;20054;-68
2023/01/10 11:55:01;;;;;;;13.38;4.78;;;;;;;10.35;82.31;101308.56;4978056;28;20081;-68